Time;durP1;ratioP1;P1;durP2;ratioP2;P2;SDS_P1;SDS_P2;PMS_P1;PMS_P2;Temp;Humidity;BMP_temperature;BMP_pressure;BME280_temperature;BME280_humidity;BME280_pressure;Samples;Min_cycle;Max_cycle;Signal;HPM_P1;HPM_P2
2023/10/27 00:00:07;;;;;;;1.38;1.25;;;;;;;12.37;93.60;97718.22;5112463;28;20040;-64
2023/10/27 00:02:38;;;;;;;0.98;0.88;;;;;;;12.49;93.38;97712.63;5114349;28;20440;-64
2023/10/27 00:05:09;;;;;;;1.38;1.05;;;;;;;12.38;93.19;97717.34;5117085;28;20051;-64
2023/10/27 00:07:38;;;;;;;1.35;0.77;;;;;;;12.32;93.28;97715.84;5117063;28;20059;-64
2023/10/27 00:10:08;;;;;;;1.85;1.40;;;;;;;12.28;93.25;97713.47;5117030;28;20043;-65
2023/10/27 00:12:37;;;;;;;3.13;2.15;;;;;;;12.20;93.16;97710.38;5117042;28;20051;-65
2023/10/27 00:15:07;;;;;;;1.07;0.87;;;;;;;12.20;93.45;97710.38;5116803;28;20084;-64
2023/10/27 00:17:36;;;;;;;17.20;1.80;;;;;;;12.23;93.54;97705.16;5116740;28;20051;-65
2023/10/27 00:20:06;;;;;;;1.63;1.40;;;;;;;12.30;93.65;97699.75;5117085;28;20035;-65
2023/10/27 00:22:37;;;;;;;0.90;0.80;;;;;;;12.34;93.54;97695.31;5117164;28;20036;-65
2023/10/27 00:25:07;;;;;;;2.10;1.30;;;;;;;12.30;93.30;97694.63;5116649;28;20072;-65
2023/10/27 00:27:35;;;;;;;1.55;0.88;;;;;;;12.37;93.55;97687.53;5116934;28;20055;-64
2023/10/27 00:30:07;;;;;;;1.98;1.10;;;;;;;12.39;93.35;97685.75;5117156;28;20097;-64
2023/10/27 00:32:36;;;;;;;3.13;1.70;;;;;;;12.34;93.33;97685.09;5116605;28;20119;-64
2023/10/27 00:35:06;;;;;;;1.00;0.82;;;;;;;12.32;93.10;97680.03;5116426;28;20051;-64
2023/10/27 00:37:37;;;;;;;;;;;;;;;12.38;93.41;97684.09;5117116;28;20055;-64
2023/10/27 00:40:07;;;;;;;1.33;1.23;;;;;;;12.39;93.11;97680.63;5115208;28;19926;-64
2023/10/27 00:42:36;;;;;;;2.00;1.23;;;;;;;12.41;93.42;97673.72;5115131;28;20062;-63
2023/10/27 00:45:06;;;;;;;2.20;1.73;;;;;;;12.47;93.37;97666.66;5115098;28;20069;-64
2023/10/27 00:47:34;;;;;;;;;;;;;;;12.57;93.31;97669.66;5115674;28;20065;-65
2023/10/27 00:50:04;;;;;;;1.23;1.10;;;;;;;12.53;93.12;97663.00;5116143;28;20010;-64
2023/10/27 00:52:33;;;;;;;1.95;1.25;;;;;;;12.49;93.36;97656.34;5116145;28;20044;-64
2023/10/27 00:55:07;;;;;;;0.60;0.60;;;;;;;12.50;93.22;97647.78;5116861;28;20039;-64
2023/10/27 00:57:37;;;;;;;0.80;0.75;;;;;;;12.54;93.18;97654.44;5116589;28;20447;-64
2023/10/27 01:00:08;;;;;;;0.68;0.68;;;;;;;12.54;93.61;97645.03;5114757;28;20143;-64
2023/10/27 01:02:37;;;;;;;1.17;1.08;;;;;;;12.52;93.17;97646.00;5115954;28;20078;-64
2023/10/27 01:05:08;;;;;;;1.25;1.15;;;;;;;12.58;93.15;97640.59;5115914;28;20040;-64
2023/10/27 01:07:38;;;;;;;1.38;1.13;;;;;;;12.58;93.14;97633.75;5115847;28;20051;-64
2023/10/27 01:10:10;;;;;;;0.90;0.85;;;;;;;12.57;93.08;97623.59;5116249;28;20048;-64
2023/10/27 01:12:43;;;;;;;1.02;0.93;;;;;;;12.54;93.07;97623.72;5115720;28;20043;-65
2023/10/27 01:15:12;;;;;;;3.08;2.00;;;;;;;12.57;93.24;97618.50;5114501;28;20043;-64
2023/10/27 01:17:41;;;;;;;0.50;0.50;;;;;;;12.59;93.42;97616.69;5114406;28;20119;-64
2023/10/27 01:20:11;;;;;;;;;;;;;;;12.56;93.46;97612.53;5115997;28;20074;-64
2023/10/27 01:22:43;;;;;;;;;;;;;;;12.55;93.02;97615.13;5116286;28;20031;-64
2023/10/27 01:25:14;;;;;;;3.97;2.63;;;;;;;12.56;93.35;97612.53;5115814;28;19947;-64
2023/10/27 01:27:42;;;;;;;1.50;1.08;;;;;;;12.60;93.28;97618.34;5115931;28;20490;-64
2023/10/27 01:30:12;;;;;;;0.82;0.80;;;;;;;12.62;93.16;97617.38;5114500;28;20406;-65
2023/10/27 01:32:43;;;;;;;;;;;;;;;12.65;93.22;97611.31;5115762;28;20126;-65
2023/10/27 01:35:13;;;;;;;1.08;0.98;;;;;;;12.66;93.27;97618.09;5115328;28;19958;-65
2023/10/27 01:37:44;;;;;;;0.45;0.45;;;;;;;12.68;93.05;97611.19;5115829;28;20131;-64
2023/10/27 01:40:13;;;;;;;1.33;0.90;;;;;;;12.67;92.97;97610.34;5115812;28;20062;-65
2023/10/27 01:42:42;;;;;;;5.15;1.80;;;;;;;12.66;93.13;97612.97;5115357;28;20077;-65
2023/10/27 01:45:13;;;;;;;1.23;0.93;;;;;;;12.62;93.24;97607.16;5115091;28;20054;-65
2023/10/27 01:47:42;;;;;;;0.60;0.60;;;;;;;12.60;92.94;97605.53;5115062;28;20379;-65
2023/10/27 01:50:11;;;;;;;2.33;1.67;;;;;;;12.57;92.69;97603.13;5113768;28;20562;-65
2023/10/27 01:52:41;;;;;;;0.40;0.40;;;;;;;12.55;92.82;97600.63;5114951;28;20043;-65
2023/10/27 01:55:11;;;;;;;1.58;1.35;;;;;;;12.55;92.91;97599.78;5115213;28;20047;-65
2023/10/27 01:57:40;;;;;;;5.05;1.20;;;;;;;12.58;92.91;97590.25;5113694;28;20048;-64
2023/10/27 02:00:10;;;;;;;0.90;0.90;;;;;;;12.59;93.01;97586.81;5113585;28;20070;-64
2023/10/27 02:02:42;;;;;;;0.57;0.57;;;;;;;12.56;92.89;97575.88;5113634;28;20047;-65
2023/10/27 02:05:11;;;;;;;7.57;3.25;;;;;;;12.54;93.04;97577.66;5114471;28;20051;-64
2023/10/27 02:07:40;;;;;;;0.40;0.40;;;;;;;12.58;93.03;97574.06;5113475;28;20506;-64
2023/10/27 02:10:11;;;;;;;0.52;0.52;;;;;;;12.57;92.93;97582.66;5114583;28;20517;-65
2023/10/27 02:12:40;;;;;;;0.60;0.60;;;;;;;12.55;93.30;97563.97;5114670;28;20040;-65
2023/10/27 02:15:09;;;;;;;0.60;0.60;;;;;;;12.60;92.90;97567.16;5114613;28;20085;-65
2023/10/27 02:17:39;;;;;;;;;;;;;;;12.55;93.30;97563.97;5114963;28;20100;-65
2023/10/27 02:20:09;;;;;;;0.73;0.70;;;;;;;12.46;93.00;97570.31;5113135;28;19919;-64
2023/10/27 02:22:42;;;;;;;1.27;1.17;;;;;;;12.50;93.30;97563.34;5114406;28;20112;-65
2023/10/27 02:25:12;;;;;;;0.40;0.40;;;;;;;12.48;93.28;97572.78;5112865;28;20044;-65
2023/10/27 02:27:41;;;;;;;11.05;1.33;;;;;;;12.47;93.41;97559.19;5113185;28;20099;-65
2023/10/27 02:30:11;;;;;;;1.38;1.27;;;;;;;12.53;93.24;97560.66;5113081;28;20118;-64
2023/10/27 02:32:39;;;;;;;0.43;0.43;;;;;;;12.47;93.30;97571.16;5114578;28;20039;-64
2023/10/27 02:35:09;;;;;;;0.77;0.77;;;;;;;12.47;93.36;97566.03;5114194;28;20040;-64
2023/10/27 02:37:38;;;;;;;1.60;1.03;;;;;;;12.53;93.49;97555.53;5114445;28;20032;-64
2023/10/27 02:40:08;;;;;;;1.83;1.70;;;;;;;12.51;93.56;97558.16;5114101;28;20126;-64
2023/10/27 02:42:40;;;;;;;1.27;1.17;;;;;;;12.58;93.61;97549.31;5113242;28;20272;-64
2023/10/27 02:45:10;;;;;;;1.75;0.88;;;;;;;12.64;93.39;97543.94;5114181;28;20054;-64
2023/10/27 02:47:39;;;;;;;2.88;1.33;;;;;;;12.64;93.41;97549.03;5114075;28;20085;-64
2023/10/27 02:50:08;;;;;;;1.30;1.20;;;;;;;12.61;93.31;97543.25;5112727;28;20040;-64
2023/10/27 02:52:37;;;;;;;1.35;1.05;;;;;;;12.65;93.43;97539.66;5113939;28;20054;-64
2023/10/27 02:55:07;;;;;;;1.03;0.90;;;;;;;12.65;93.71;97537.94;5113936;28;20050;-64
2023/10/27 02:57:36;;;;;;;1.35;1.00;;;;;;;12.64;93.27;97531.13;5112706;28;20036;-64
2023/10/27 03:00:08;;;;;;;2.10;1.75;;;;;;;12.65;93.79;97529.41;5114817;28;20122;-64
2023/10/27 03:02:37;;;;;;;0.63;0.55;;;;;;;12.72;93.63;97518.84;5113848;28;20121;-65
2023/10/27 03:05:06;;;;;;;0.95;0.93;;;;;;;12.75;93.89;97505.91;5112430;28;20051;-65
2023/10/27 03:07:35;;;;;;;0.50;0.50;;;;;;;12.78;93.59;97510.06;5114165;28;20089;-64
2023/10/27 03:10:04;;;;;;;1.50;0.70;;;;;;;12.78;93.99;97499.84;5113906;28;20043;-65
2023/10/27 03:12:33;;;;;;;0.88;0.85;;;;;;;12.75;93.78;97499.97;5112540;28;20078;-64
2023/10/27 03:15:02;;;;;;;0.87;0.87;;;;;;;12.82;94.01;97496.22;5112628;28;20499;-65
2023/10/27 03:17:32;;;;;;;0.50;0.50;;;;;;;12.88;93.84;97495.97;5113836;28;20322;-64
2023/10/27 03:20:03;;;;;;;0.80;0.80;;;;;;;12.88;94.20;97490.84;5113712;28;20586;-64
2023/10/27 03:22:34;;;;;;;0.93;0.68;;;;;;;12.88;93.85;97480.63;5113985;28;20067;-64
2023/10/27 03:25:03;;;;;;;1.10;1.00;;;;;;;12.88;94.26;97475.50;5113589;28;20047;-64
2023/10/27 03:27:33;;;;;;;0.75;0.75;;;;;;;12.94;94.02;97472.63;5112753;28;20050;-65
2023/10/27 03:30:03;;;;;;;1.38;1.25;;;;;;;12.96;94.41;97468.28;5113625;28;20047;-64
2023/10/27 03:32:33;;;;;;;0.50;0.50;;;;;;;12.95;94.12;97460.69;5113639;28;20044;-64
2023/10/27 03:35:02;;;;;;;1.35;1.25;;;;;;;12.92;94.01;97451.41;5113563;28;20052;-65
2023/10/27 03:37:31;;;;;;;0.93;0.93;;;;;;;12.90;94.22;97453.22;5114223;28;20375;-66
2023/10/27 03:40:01;;;;;;;4.10;2.20;;;;;;;12.86;94.60;97445.75;5117577;28;20039;-64
2023/10/27 03:42:30;;;;;;;0.95;0.95;;;;;;;12.91;94.43;97442.06;5116443;28;20050;-65
2023/10/27 03:45:02;;;;;;;1.15;1.05;;;;;;;12.99;94.81;97439.13;5117415;28;20043;-64
2023/10/27 03:47:33;;;;;;;2.35;0.95;;;;;;;13.05;94.91;97426.88;5116314;28;20111;-65
2023/10/27 03:50:02;;;;;;;1.30;1.20;;;;;;;13.05;94.79;97429.44;5117399;27;20039;-64
2023/10/27 03:52:30;;;;;;;1.58;1.20;;;;;;;13.08;94.59;97420.81;5116132;28;20163;-65
2023/10/27 03:55:00;;;;;;;0.60;0.60;;;;;;;13.07;94.46;97417.44;5117951;28;20043;-64
2023/10/27 03:57:28;;;;;;;0.70;0.70;;;;;;;13.07;94.98;97404.66;5117252;28;20357;-64
2023/10/27 03:59:57;;;;;;;0.85;0.82;;;;;;;13.05;94.49;97397.91;5117182;28;20044;-64
2023/10/27 04:02:26;;;;;;;0.73;0.73;;;;;;;13.04;94.76;97391.13;5117620;28;20470;-65
2023/10/27 04:04:56;;;;;;;0.95;0.95;;;;;;;13.02;94.94;97380.94;5116697;28;20043;-64
2023/10/27 04:07:26;;;;;;;0.70;0.70;;;;;;;13.03;94.96;97372.34;5117351;28;20094;-64
2023/10/27 04:09:56;;;;;;;1.15;0.90;;;;;;;13.11;95.02;97365.19;5117005;28;20074;-64
2023/10/27 04:12:24;;;;;;;0.80;0.77;;;;;;;13.14;94.77;97359.91;5116921;28;20132;-64
2023/10/27 04:14:53;;;;;;;7.25;4.18;;;;;;;13.18;94.89;97350.34;5116832;28;20036;-65
2023/10/27 04:17:22;;;;;;;8.10;5.43;;;;;;;13.23;95.23;97349.22;5116848;28;20036;-64
2023/10/27 04:19:51;;;;;;;3.05;2.75;;;;;;;13.26;94.93;97350.81;5117135;28;20059;-65
2023/10/27 04:22:21;;;;;;;3.83;2.67;;;;;;;13.24;95.29;97340.66;5116759;28;20088;-65
2023/10/27 04:24:50;;;;;;;5.15;3.35;;;;;;;13.27;95.22;97340.47;5115442;28;20065;-64
2023/10/27 04:27:19;;;;;;;2.97;2.00;;;;;;;13.29;95.10;97333.53;5115965;28;20036;-64
2023/10/27 04:29:48;;;;;;;2.33;2.03;;;;;;;13.34;95.48;97325.66;5116528;28;20276;-64
2023/10/27 04:32:18;;;;;;;0.97;0.93;;;;;;;13.34;95.05;97316.22;5116433;28;20043;-64
2023/10/27 04:34:47;;;;;;;1.42;1.33;;;;;;;13.34;94.87;97311.09;5116714;28;20460;-64
2023/10/27 04:37:16;;;;;;;0.93;0.87;;;;;;;13.35;95.41;97306.78;5116771;28;20039;-64
2023/10/27 04:39:46;;;;;;;1.60;1.50;;;;;;;13.36;95.57;97296.47;5116688;28;20043;-65
2023/10/27 04:42:15;;;;;;;0.98;0.80;;;;;;;13.39;95.49;97293.75;5116652;28;20402;-64
2023/10/27 04:44:44;;;;;;;0.80;0.80;;;;;;;13.39;95.53;97280.09;5116151;28;20093;-63
2023/10/27 04:47:13;;;;;;;1.75;1.65;;;;;;;13.39;95.61;97272.44;5116237;28;20036;-64
2023/10/27 04:49:42;;;;;;;0.77;0.77;;;;;;;13.36;95.47;97263.16;5115828;28;20044;-64
2023/10/27 04:52:12;;;;;;;1.02;0.93;;;;;;;13.38;95.80;97257.97;5114960;28;20051;-64
2023/10/27 04:54:41;;;;;;;1.25;1.02;;;;;;;13.41;95.56;97255.28;5116033;28;20042;-64
2023/10/27 04:57:12;;;;;;;1.73;1.63;;;;;;;13.44;95.70;97255.09;5116000;28;20032;-64
2023/10/27 04:59:41;;;;;;;1.85;1.48;;;;;;;13.48;95.92;97259.16;5115953;28;20502;-64
2023/10/27 05:02:10;;;;;;;1.13;1.08;;;;;;;13.53;95.87;97241.00;5115961;28;20040;-64
2023/10/27 05:05:05;;;;;;;0.60;0.60;;;;;;;13.58;95.88;97239.81;5115540;28;20048;-64
2023/10/27 05:07:34;;;;;;;;;;;;;;;13.60;96.52;97230.34;5116297;28;20043;-64
2023/10/27 05:10:03;;;;;;;8.95;0.70;;;;;;;13.63;96.35;97224.25;5115773;28;19919;-64
2023/10/27 05:12:33;;;;;;;0.98;0.88;;;;;;;13.68;96.32;97233.31;5116158;28;20051;-64
2023/10/27 05:15:03;;;;;;;0.73;0.63;;;;;;;13.70;96.50;97225.56;5115991;28;20047;-64
2023/10/27 05:17:35;;;;;;;0.93;0.93;;;;;;;13.75;96.47;97224.41;5115642;28;20039;-64
2023/10/27 05:20:05;;;;;;;0.90;0.82;;;;;;;13.79;96.38;97225.09;5115937;28;20079;-64
2023/10/27 05:22:34;;;;;;;0.60;0.60;;;;;;;13.81;96.91;97218.13;5115762;28;20127;-64
2023/10/27 05:25:06;;;;;;;0.77;0.77;;;;;;;13.82;96.57;97214.66;5115366;28;20036;-64
2023/10/27 05:27:37;;;;;;;1.77;0.90;;;;;;;13.79;97.01;97209.69;5116131;28;20047;-64
2023/10/27 05:30:07;;;;;;;1.35;1.25;;;;;;;13.76;96.71;97220.09;5115450;28;20060;-64
2023/10/27 05:32:36;;;;;;;1.42;1.23;;;;;;;13.74;96.75;97211.69;5115482;28;20039;-64
2023/10/27 05:35:06;;;;;;;0.98;0.98;;;;;;;13.72;96.69;97200.69;5115322;28;20118;-64
2023/10/27 05:37:35;;;;;;;1.58;1.27;;;;;;;13.72;97.01;97203.25;5115308;28;20055;-64
2023/10/27 05:40:04;;;;;;;1.98;1.88;;;;;;;13.69;97.04;97203.41;5115174;28;20043;-64
2023/10/27 05:42:33;;;;;;;1.05;0.98;;;;;;;13.69;96.88;97205.97;5115532;28;20074;-64
2023/10/27 05:45:04;;;;;;;0.67;0.67;;;;;;;13.72;97.22;97198.94;5115165;28;20390;-64
2023/10/27 05:47:33;;;;;;;1.20;1.02;;;;;;;13.70;97.05;97202.50;5115167;28;20279;-64
2023/10/27 05:50:02;;;;;;;1.98;1.17;;;;;;;13.71;97.07;97197.28;5113791;28;20035;-64
2023/10/27 05:52:31;;;;;;;0.40;0.40;;;;;;;13.73;97.47;97204.88;5109380;28;20441;-64
2023/10/27 05:55:00;;;;;;;0.53;0.53;;;;;;;13.73;97.57;97204.88;5114230;28;20448;-65
2023/10/27 05:57:29;;;;;;;0.40;0.40;;;;;;;13.85;97.83;97211.91;5114750;28;20046;-64
2023/10/27 05:59:58;;;;;;;0.50;0.50;;;;;;;13.94;98.05;97203.75;5114296;28;20051;-64
2023/10/27 06:02:28;;;;;;;0.43;0.43;;;;;;;13.98;98.39;97200.13;5114689;28;20040;-64
2023/10/27 06:04:57;;;;;;;0.70;0.70;;;;;;;14.01;98.05;97194.81;5113988;28;20304;-64
2023/10/27 06:07:26;;;;;;;0.60;0.60;;;;;;;14.03;98.22;97183.56;5112781;28;20444;-64
2023/10/27 06:09:55;;;;;;;0.50;0.50;;;;;;;14.08;98.59;97185.88;5114959;28;20077;-64
2023/10/27 06:12:24;;;;;;;0.67;0.50;;;;;;;14.15;98.70;97182.06;5114601;28;20044;-64
2023/10/27 06:14:53;;;;;;;0.50;0.50;;;;;;;14.18;99.10;97187.00;5113521;28;20775;-64
2023/10/27 06:17:22;;;;;;;0.43;0.43;;;;;;;14.19;98.65;97183.53;5113564;28;20046;-64
2023/10/27 06:19:52;;;;;;;0.37;0.37;;;;;;;14.22;99.19;97175.69;5113519;28;20039;-64
2023/10/27 06:22:41;;;;;;;0.35;0.35;;;;;;;14.24;99.14;97171.28;5114814;28;20832;-63
2023/10/27 06:25:10;;;;;;;0.60;0.57;;;;;;;14.26;98.84;97174.59;5113073;28;20048;-64
2023/10/27 06:27:39;;;;;;;0.30;0.30;;;;;;;14.29;99.15;97168.47;5114672;28;20278;-64
2023/10/27 06:30:09;;;;;;;0.32;0.32;;;;;;;14.30;98.88;97163.28;5112144;28;20131;-64
2023/10/27 06:32:38;;;;;;;1.08;0.98;;;;;;;14.31;99.16;97162.38;5114601;28;20071;-63
2023/10/27 06:35:09;;;;;;;1.55;1.45;;;;;;;14.31;99.02;97156.41;5113027;28;20403;-64
2023/10/27 06:37:37;;;;;;;1.10;1.00;;;;;;;14.28;99.17;97157.38;5114167;28;20048;-64
2023/10/27 06:40:08;;;;;;;3.30;2.13;;;;;;;14.26;98.58;97148.94;5113098;28;20060;-64
2023/10/27 06:42:37;;;;;;;1.48;1.38;;;;;;;14.13;98.40;97142.03;5114104;28;20078;-63
2023/10/27 06:45:08;;;;;;;8.15;1.90;;;;;;;14.06;98.70;97131.25;5113900;28;20036;-63
2023/10/27 06:47:37;;;;;;;9.82;6.25;;;;;;;14.04;99.02;97122.81;5114063;28;20047;-63
2023/10/27 06:50:10;;;;;;;2.28;1.95;;;;;;;14.00;98.87;97121.34;5113213;28;20047;-63
2023/10/27 06:52:39;;;;;;;1.88;1.73;;;;;;;14.05;98.99;97124.50;5114076;28;20090;-63
2023/10/27 06:55:08;;;;;;;8.07;2.13;;;;;;;14.08;98.59;97121.78;5114245;28;20050;-63
2023/10/27 06:57:39;;;;;;;4.03;1.60;;;;;;;14.08;98.95;97114.06;5113968;28;20043;-63
2023/10/27 07:00:09;;;;;;;1.55;1.45;;;;;;;14.06;98.83;97105.63;5112710;28;20404;-63
2023/10/27 07:02:38;;;;;;;2.00;1.13;;;;;;;14.03;98.58;97116.06;5113748;28;20067;-63
2023/10/27 07:05:25;;;;;;;1.23;1.13;;;;;;;14.02;98.93;97119.53;5112417;28;20044;-63
2023/10/27 07:07:54;;;;;;;4.22;3.78;;;;;;;13.99;98.73;97100.00;5111695;28;20126;-63
2023/10/27 07:10:23;;;;;;;10.67;5.17;;;;;;;13.98;98.83;97107.81;5103440;28;20032;-63
2023/10/27 07:12:52;;;;;;;1.52;1.08;;;;;;;13.96;98.65;97101.94;5116879;28;20110;-64
2023/10/27 07:15:21;;;;;;;1.27;1.15;;;;;;;13.92;98.48;97098.69;5118095;28;20044;-63
2023/10/27 07:17:51;;;;;;;1.88;1.63;;;;;;;13.87;98.49;97099.84;5118004;28;20123;-64
2023/10/27 07:20:20;;;;;;;0.75;0.75;;;;;;;13.87;98.80;97094.72;5117126;28;20031;-63
2023/10/27 07:22:50;;;;;;;0.95;0.93;;;;;;;13.91;98.69;97093.66;5117874;27;20554;-63
2023/10/27 07:25:19;;;;;;;0.63;0.60;;;;;;;13.92;98.88;97090.16;5117813;28;20116;-63
2023/10/27 07:27:50;;;;;;;6.22;2.17;;;;;;;13.92;98.81;97079.91;5118117;28;20036;-64
2023/10/27 07:30:19;;;;;;;1.08;0.98;;;;;;;13.94;98.62;97070.44;5116618;28;21376;-63
2023/10/27 07:32:49;;;;;;;1.00;0.93;;;;;;;13.95;98.59;97064.38;5116938;28;20039;-63
2023/10/27 07:35:18;;;;;;;2.28;1.30;;;;;;;13.97;99.13;97062.53;5117850;27;20562;-64
2023/10/27 07:37:48;;;;;;;0.65;0.65;;;;;;;13.99;98.85;97053.03;5117797;27;20126;-64
2023/10/27 07:40:19;;;;;;;0.75;0.75;;;;;;;13.99;98.74;97042.75;5115279;28;20062;-64
2023/10/27 07:42:48;;;;;;;1.48;0.95;;;;;;;13.99;99.00;97037.63;5116962;28;20448;-63
2023/10/27 07:45:17;;;;;;;0.63;0.63;;;;;;;13.99;98.94;97037.63;5114359;28;20036;-64
2023/10/27 07:47:46;;;;;;;2.13;1.37;;;;;;;13.97;98.73;97034.34;5116615;28;20394;-64
2023/10/27 07:50:15;;;;;;;1.50;1.40;;;;;;;13.96;98.59;97023.25;5116461;28;20291;-64
2023/10/27 07:52:44;;;;;;;1.17;1.08;;;;;;;13.97;99.11;97019.78;5117653;28;20039;-64
2023/10/27 07:55:12;;;;;;;0.65;0.63;;;;;;;13.94;99.27;97019.94;5116312;27;20059;-64
2023/10/27 07:57:43;;;;;;;0.60;0.60;;;;;;;13.95;98.70;97000.28;5116664;28;20043;-64
2023/10/27 08:00:14;;;;;;;0.55;0.55;;;;;;;13.98;99.42;96992.41;5117844;28;20043;-64
2023/10/27 08:02:43;;;;;;;0.35;0.35;;;;;;;14.00;99.44;96993.16;5117110;28;20539;-64
2023/10/27 08:05:12;;;;;;;0.95;0.90;;;;;;;13.96;98.90;96986.56;5115656;28;20513;-64
2023/10/27 08:07:41;;;;;;;0.83;0.73;;;;;;;13.93;99.07;96981.59;5117263;28;20044;-64
2023/10/27 08:10:10;;;;;;;0.67;0.67;;;;;;;13.96;99.40;96976.28;5117274;28;20767;-64
2023/10/27 08:12:39;;;;;;;0.40;0.40;;;;;;;13.99;99.31;96986.34;5111477;28;20289;-63
2023/10/27 08:15:10;;;;;;;3.47;2.70;;;;;;;13.97;99.77;96978.75;5096411;28;20044;-63
2023/10/27 08:17:39;;;;;;;0.70;0.70;;;;;;;13.99;99.71;96973.53;5096533;28;20058;-63
2023/10/27 08:20:08;;;;;;;0.67;0.60;;;;;;;13.98;99.76;96959.06;5101957;28;20035;-64
2023/10/27 08:22:37;;;;;;;0.50;0.50;;;;;;;13.97;99.74;96962.53;5115368;28;20310;-65
2023/10/27 08:25:06;;;;;;;0.50;0.50;;;;;;;13.94;99.73;96960.19;5114874;28;20061;-64
2023/10/27 08:27:36;;;;;;;0.32;0.32;;;;;;;13.93;99.96;96958.50;5116875;28;20631;-64
2023/10/27 08:30:06;;;;;;;0.52;0.52;;;;;;;13.98;100.00;96953.94;5115423;28;20043;-65
2023/10/27 08:32:37;;;;;;;0.55;0.55;;;;;;;14.00;100.00;96963.22;5101408;28;20036;-65
2023/10/27 08:35:06;;;;;;;1.90;1.55;;;;;;;13.99;100.00;96960.72;5116555;28;20048;-63
2023/10/27 08:37:35;;;;;;;1.13;1.00;;;;;;;13.99;100.00;96956.41;5116371;28;20047;-64
2023/10/27 08:40:10;;;;;;;1.92;1.52;;;;;;;14.03;100.00;96962.19;5116623;28;20044;-64
2023/10/27 08:42:42;;;;;;;0.43;0.43;;;;;;;14.08;100.00;96957.63;5095972;28;20051;-64
2023/10/27 08:45:11;;;;;;;0.55;0.52;;;;;;;14.08;100.00;96955.06;5095939;28;20054;-64
2023/10/27 08:47:42;;;;;;;0.77;0.77;;;;;;;14.06;100.00;96946.63;5099493;28;20043;-63
2023/10/27 08:50:11;;;;;;;0.52;0.52;;;;;;;14.07;100.00;96943.16;5116802;28;20397;-64
2023/10/27 08:52:40;;;;;;;1.70;0.82;;;;;;;14.06;100.00;96934.63;5116110;28;20051;-64
2023/10/27 08:55:10;;;;;;;0.52;0.52;;;;;;;14.08;100.00;96935.34;5116176;28;20050;-64
2023/10/27 08:57:39;;;;;;;0.40;0.40;;;;;;;14.09;100.00;96928.50;5114940;28;20043;-64
2023/10/27 09:00:10;;;;;;;1.15;1.05;;;;;;;14.06;100.00;96921.81;5116354;28;20048;-64
2023/10/27 09:02:39;;;;;;;0.40;0.40;;;;;;;14.09;100.00;96931.06;5116253;28;20043;-64
2023/10/27 09:05:10;;;;;;;0.60;0.60;;;;;;;14.09;100.00;96920.81;5114757;28;20062;-63
2023/10/27 09:07:39;;;;;;;2.38;0.98;;;;;;;14.12;100.00;96915.50;5114677;27;20040;-64
2023/10/27 09:10:09;;;;;;;0.40;0.40;;;;;;;14.13;100.00;96923.09;5115764;28;20043;-64
2023/10/27 09:12:38;;;;;;;0.50;0.50;;;;;;;14.10;100.00;96922.47;5115777;28;20126;-64
2023/10/27 09:15:08;;;;;;;0.70;0.70;;;;;;;14.13;100.00;96914.59;5116179;28;20040;-64
2023/10/27 09:17:53;;;;;;;0.60;0.60;;;;;;;14.17;100.00;96915.22;5115027;28;20073;-64
2023/10/27 09:20:25;;;;;;;0.55;0.55;;;;;;;14.15;100.00;96917.88;5115991;28;20043;-64
2023/10/27 09:22:58;;;;;;;0.30;0.30;;;;;;;14.17;100.00;96912.66;5115647;28;20046;-64
2023/10/27 09:25:29;;;;;;;1.70;0.80;;;;;;;14.16;100.00;96908.47;5115569;28;20065;-64
2023/10/27 09:28:00;;;;;;;0.55;0.55;;;;;;;14.17;100.00;96905.78;5113543;28;20043;-63
2023/10/27 09:30:32;;;;;;;0.52;0.52;;;;;;;14.15;100.00;96899.94;5114362;28;20047;-64
2023/10/27 09:33:15;;;;;;;1.42;0.93;;;;;;;14.18;100.00;96892.03;5115451;28;20044;-63
2023/10/27 09:35:48;;;;;;;2.53;2.20;;;;;;;14.20;100.00;96887.66;5114260;28;20040;-63
2023/10/27 09:38:18;;;;;;;1.20;1.10;;;;;;;14.21;100.00;96883.34;5114608;28;20040;-64
2023/10/27 09:40:47;;;;;;;0.80;0.80;;;;;;;14.25;100.00;96883.09;5115482;28;20071;-64
2023/10/27 09:43:19;;;;;;;0.60;0.60;;;;;;;14.23;100.00;96866.94;5115216;28;20491;-64
2023/10/27 09:45:53;;;;;;;1.00;0.68;;;;;;;14.23;100.00;96872.06;5115109;28;20039;-64
2023/10/27 09:48:27;;;;;;;0.57;0.57;;;;;;;14.22;100.00;96855.03;5113975;28;20410;-64
2023/10/27 09:51:03;;;;;;;0.40;0.40;;;;;;;14.19;100.00;96857.78;5115303;28;20112;-64
2023/10/27 09:53:35;;;;;;;0.43;0.43;;;;;;;14.21;100.00;96852.56;5115093;28;20116;-64
2023/10/27 09:56:05;;;;;;;0.40;0.40;;;;;;;14.24;100.00;96848.06;5113707;27;20073;-65
2023/10/27 09:58:35;;;;;;;0.35;0.35;;;;;;;14.21;100.00;96845.69;5114893;28;20043;-64
2023/10/27 10:01:06;;;;;;;0.55;0.55;;;;;;;14.22;100.00;96846.53;5114765;28;20524;-64
2023/10/27 10:03:35;;;;;;;0.40;0.40;;;;;;;14.24;100.00;96848.06;5114786;28;20112;-64
2023/10/27 10:06:14;;;;;;;0.57;0.57;;;;;;;14.24;100.00;96848.06;5114414;28;20052;-64
2023/10/27 10:09:10;;;;;;;0.98;0.90;;;;;;;14.29;100.00;96847.78;5105930;28;20126;-64
2023/10/27 10:11:55;;;;;;;0.77;0.77;;;;;;;14.30;100.00;96841.75;5094473;28;20040;-64
2023/10/27 10:14:47;;;;;;;0.40;0.40;;;;;;;14.27;100.00;96852.19;5094202;28;20044;-63
2023/10/27 10:17:36;;;;;;;0.40;0.40;;;;;;;14.30;100.00;96842.59;5094370;28;20111;-64
2023/10/27 10:20:07;;;;;;;0.60;0.60;;;;;;;14.33;100.00;96850.09;5111305;28;20054;-64
2023/10/27 10:22:58;;;;;;;0.47;0.47;;;;;;;14.41;100.00;96854.78;5114695;28;20126;-64
2023/10/27 10:25:31;;;;;;;0.50;0.50;;;;;;;14.40;100.00;96853.94;5109698;28;20044;-63
2023/10/27 10:28:21;;;;;;;0.68;0.68;;;;;;;14.38;100.00;96849.81;5113386;28;20091;-63
2023/10/27 10:31:27;;;;;;;0.70;0.70;;;;;;;14.37;100.00;96854.13;5114287;28;20050;-63
2023/10/27 10:34:11;;;;;;;1.40;1.15;;;;;;;14.39;100.00;96846.34;5114268;28;20052;-64
2023/10/27 10:36:41;;;;;;;1.40;1.00;;;;;;;14.41;100.00;96854.78;5114625;28;20071;-64
2023/10/27 10:39:11;;;;;;;0.50;0.50;;;;;;;14.43;100.00;96847.81;5111080;28;20445;-63
2023/10/27 10:42:01;;;;;;;0.80;0.80;;;;;;;14.42;100.00;96835.91;5111773;28;20083;-66
2023/10/27 10:44:31;;;;;;;4.32;2.03;;;;;;;14.42;100.00;96835.91;5097711;28;20092;-63
2023/10/27 10:47:03;;;;;;;1.08;0.98;;;;;;;14.41;100.00;96823.97;5102615;28;20071;-63
2023/10/27 10:49:33;;;;;;;0.60;0.60;;;;;;;14.39;100.00;96813.81;5105396;28;20496;-63
2023/10/27 10:52:02;;;;;;;1.30;0.90;;;;;;;14.41;100.00;96804.28;5114005;28;20043;-63
2023/10/27 10:54:35;;;;;;;2.08;1.85;;;;;;;14.41;100.00;96808.59;5114283;28;20043;-63
2023/10/27 10:57:08;;;;;;;3.22;1.10;;;;;;;14.42;99.94;96816.19;5113958;28;20130;-63
2023/10/27 10:59:37;;;;;;;0.73;0.73;;;;;;;14.46;100.00;96822.78;5111324;28;20032;-63
2023/10/27 11:02:08;;;;;;;0.75;0.75;;;;;;;14.52;100.00;96813.88;5113802;28;20126;-64
2023/10/27 11:04:37;;;;;;;1.60;1.02;;;;;;;14.60;100.00;96825.31;5113837;28;20044;-64
2023/10/27 11:07:10;;;;;;;1.23;0.80;;;;;;;14.65;100.00;96828.44;5113784;28;20135;-63
2023/10/27 11:09:41;;;;;;;1.02;0.98;;;;;;;14.76;100.00;96836.25;5096448;28;20110;-63
2023/10/27 11:12:25;;;;;;;0.50;0.50;;;;;;;14.87;100.00;96827.91;5100755;28;20089;-64
2023/10/27 11:14:54;;;;;;;0.50;0.50;;;;;;;14.91;99.94;96828.50;5113864;28;20062;-64
2023/10/27 11:17:24;;;;;;;3.80;3.15;;;;;;;14.93;99.78;96842.91;5108107;28;20391;-64
2023/10/27 11:19:55;;;;;;;2.15;1.23;;;;;;;14.91;99.89;96855.00;5092363;28;20131;-64
2023/10/27 11:22:25;;;;;;;1.35;1.25;;;;;;;14.87;100.00;96852.75;5111024;28;20051;-64
2023/10/27 11:24:56;;;;;;;0.47;0.47;;;;;;;14.78;99.72;96862.66;5114034;28;20399;-64
2023/10/27 11:27:26;;;;;;;0.95;0.88;;;;;;;14.78;99.75;96865.22;5112189;28;20485;-63
2023/10/27 11:29:59;;;;;;;0.50;0.50;;;;;;;14.78;99.78;96857.53;5092037;28;20049;-64
2023/10/27 11:32:32;;;;;;;0.75;0.75;;;;;;;14.80;99.89;96856.63;5093383;28;20499;-64
2023/10/27 11:35:01;;;;;;;0.57;0.57;;;;;;;14.84;100.00;96858.06;5108665;28;20040;-64
2023/10/27 11:37:30;;;;;;;0.40;0.40;;;;;;;14.90;99.96;96857.69;5113567;28;20040;-64
2023/10/27 11:40:14;;;;;;;;;;;;;;;14.92;99.93;96866.94;5095248;28;20044;-64
2023/10/27 11:42:43;;;;;;;0.40;0.40;;;;;;;14.85;100.00;96859.72;5093255;28;20378;-64
2023/10/27 11:45:11;;;;;;;1.13;0.87;;;;;;;14.78;100.00;96849.81;5092139;28;20044;-64
2023/10/27 11:47:40;;;;;;;0.40;0.40;;;;;;;14.80;100.00;96842.03;5092991;28;20399;-64
2023/10/27 11:50:11;;;;;;;0.50;0.50;;;;;;;14.83;100.00;96833.31;5093899;28;20044;-64